SKPE/PEI METAR and TAF weather

Enter ICAO airport designator
Station Type Date Time Source
SKPE METAR 2019/04/25 12:00 UTC NOAA

SKPE 251200Z 11005KT 9000 MIFG SCT014 SCT080 20/18 A3007


Station Type Date Time Source
SKPE Decoded METAR 2019/04/25 12:00 UTC NOAA

Pereira / Matecana, Colombia (SKPE) 04-49N 075-44W 1342M
Apr 25, 2019 - 08:00 AM EDT / 2019.04.25 1200 UTC
Wind: from the ESE (110 degrees) at 6 MPH (5 KT):0
Visibility: 5 mile(s):0
Sky conditions: partly cloudy
Weather: shallow fog
Temperature: 68 F (20 C)
Dew Point: 64 F (18 C)
Relative Humidity: 88%
Pressure (altimeter): 30.07 in. Hg (1018 hPa)
ob: SKPE 251200Z 11005KT 9000 MIFG SCT014 SCT080 20/18 A3007
cycle: 12

Station Type Date Time Source
SKPE TAF 2019/04/25 12:36 UTC NOAA

TAF SKPE 251030Z 2512/2612 VRB03KT 9999 SCT010 SCT080
TEMPO 2512/2514 4000 BR BKN007
BECMG 2516/2518 26010KT SCT017 BKN070
TEMPO 2519/2522 7000 DZRA SCT015TCU BKN070
BECMG 2602/0604 VRB03KT TX27/2519Z TN18/2611Z

Example: see airport list